Delray Beach, FL

12:24 PM EDT on April 26, 2015 (GMT -0400)
Bexley Park | | Change Station
CLOSE
Current Station
Personal Weather Station
Location: Delray Beach, FL
Elevation: 15 ft
Nearby Weather Stations

Elev 15 ft 26.48 °N, 80.12 °W | Updated 2 minutes ago

Clear
Clear
94.9 °F
Feels Like 108 °F
N
9.0
Wind Variable Wind from WSW
Gusts 11.0 mph

Today
High -- | Low -- °F
--% Chance of Precip.
Yesterday
High -- | Low -- °F
Precip. -- in
6:47 AM 7:49 PM
First Quarter, 56% visible
Pressure 29.83 in
Visibility 10.0 miles
Clouds Clear
Heat Index 108 °F
Dew Point 76 °F
Humidity 54%
Rainfall 0.00 in
Snow Depth Not available.
UV 11.1 out of 12
Pollen 7.30 out of 12
Air Quality Not available.
Flu Activity Local Activity
METAR KPMP 261553Z 26015KT 10SM CLR 34/21 A2982 RMK AO2 SLP099 T03390206

More Conditions Fewer Conditions

Pressure 29.83 in
Visibility 10.0 miles
Clouds Clear
Heat Index 108 °F
Dew Point 76 °F
Humidity 54%
Rainfall 0.00 in
Snow Depth Not available.
UV 11.1 out of 12
Pollen 7.30 out of 12
Air Quality Not available.
Flu Activity Local Activity
METAR KPMP 261553Z 26015KT 10SM CLR 34/21 A2982 RMK AO2 SLP099 T03390206

More Conditions Fewer Conditions

The full scope of the disaster following a powerful 7.8-magnitude earthquake in Nepal may not come into view for days, but global charities are already sending emergency aid. Click to see how you can help.

10-Day Weather Forecast

Almanac

Astronomy

Apr. 26, 2015 Rise Set
Actual Time
Civil Twilight
Nautical Twilight
Astronomical Twilight
Moon
Length of Visible Light
Length of Day
Tomorrow will be .
, % of the Moon is Illuminated

Today's Extremes

State Highs State Lows

Community

WunderPhotos

Upload Photos

1,817,049 photos uploaded!

WunderBlogs® & News

Nearby

Air Quality

  Air Quality AQ Index Pollutant
Not available.

Snow Depth

Station Depth Elevation

Earthquake Activity

City Distance Mag. Time & Date
Minimum magnitude displayed is 2.5.

Coastal Water Temperatures

Place Temperature

Stations

Nearby Weather Stations

Station Location Temp. Windchill Dew Point Humidity Wind Precip. Elev Updated Type